createdAt,value
2022-10-09T00:01:08.686Z,90.24
2022-10-09T00:03:36.991Z,88.97
2022-10-09T00:06:04.895Z,89.58
2022-10-09T00:08:31.803Z,89.76
2022-10-09T00:10:58.227Z,88.15
2022-10-09T00:13:24.707Z,90.50
2022-10-09T00:15:51.206Z,90.95
2022-10-09T00:18:18.613Z,90.43
2022-10-09T00:20:46.571Z,91.18
2022-10-09T00:23:15.258Z,91.49
2022-10-09T00:25:53.542Z,90.86
2022-10-09T00:28:21.344Z,91.69
2022-10-09T00:30:48.163Z,91.93
2022-10-09T00:33:14.833Z,91.97
2022-10-09T00:35:41.690Z,91.99
2022-10-09T00:38:08.719Z,92.46
2022-10-09T00:40:37.445Z,92.15
2022-10-09T00:43:06.989Z,92.58
2022-10-09T00:45:33.653Z,91.54
2022-10-09T00:48:03.120Z,90.69
2022-10-09T00:50:46.509Z,91.39
2022-10-09T00:53:18.535Z,92.41
2022-10-09T00:55:45.843Z,93.04
2022-10-09T00:58:13.096Z,93.96
2022-10-09T01:00:40.639Z,93.73
2022-10-09T01:03:07.199Z,93.65
2022-10-09T01:06:04.445Z,94.14
2022-10-09T01:09:09.925Z,93.52
2022-10-09T01:11:49.171Z,92.84
2022-10-09T01:14:32.382Z,94.10
2022-10-09T01:17:05.121Z,94.23
2022-10-09T01:19:42.371Z,93.98
2022-10-09T01:22:29.163Z,93.58
2022-10-09T01:25:05.156Z,93.39
2022-10-09T01:27:33.138Z,93.65
2022-10-09T01:30:08.231Z,92.67
2022-10-09T01:32:38.686Z,91.91
2022-10-09T01:35:07.004Z,90.45
2022-10-09T01:37:35.744Z,91.31
2022-10-09T01:40:04.458Z,92.30
2022-10-09T01:42:32.565Z,91.98
2022-10-09T01:44:59.084Z,92.08
2022-10-09T01:47:26.156Z,93.91
2022-10-09T01:50:03.942Z,94.94
2022-10-09T01:52:40.388Z,96.45
2022-10-09T01:55:45.546Z,96.14
2022-10-09T01:58:23.487Z,96.46
2022-10-09T02:01:09.634Z,97.05
2022-10-09T02:03:40.769Z,98.04
2022-10-09T02:06:12.316Z,96.94
2022-10-09T02:08:40.284Z,97.42
2022-10-09T02:11:07.495Z,96.18
2022-10-09T02:13:35.977Z,95.06
2022-10-09T02:16:05.767Z,96.00
2022-10-09T02:18:42.320Z,95.81
2022-10-09T02:21:15.151Z,94.54
2022-10-09T02:23:45.127Z,95.02
2022-10-09T02:26:12.816Z,94.46
2022-10-09T02:28:43.819Z,94.71
2022-10-09T02:31:17.041Z,94.86
2022-10-09T02:33:43.585Z,95.82
2022-10-09T02:36:10.334Z,95.66
2022-10-09T02:38:36.808Z,94.70
2022-10-09T02:41:03.566Z,93.94
2022-10-09T02:43:30.078Z,93.17
2022-10-09T02:45:56.524Z,93.66
2022-10-09T02:48:23.009Z,93.62
2022-10-09T02:50:49.519Z,93.54
2022-10-09T02:53:16.055Z,93.08
2022-10-09T02:55:42.512Z,92.79
2022-10-09T02:58:08.934Z,92.77
2022-10-09T03:00:37.335Z,92.81
2022-10-09T03:03:04.230Z,93.21
2022-10-09T03:05:30.739Z,93.18
2022-10-09T03:07:57.213Z,92.46
2022-10-09T03:10:23.719Z,92.44
2022-10-09T03:12:50.514Z,93.27
2022-10-09T03:15:17.242Z,92.44
2022-10-09T03:17:43.764Z,92.12
2022-10-09T03:20:10.268Z,91.65
2022-10-09T03:22:36.697Z,91.07
2022-10-09T03:25:03.498Z,91.40
2022-10-09T03:27:30.874Z,92.28
2022-10-09T03:29:58.546Z,93.00
2022-10-09T03:32:25.602Z,92.40
2022-10-09T03:34:52.139Z,92.11
2022-10-09T03:37:18.635Z,91.53
2022-10-09T03:39:45.155Z,90.70
2022-10-09T03:42:11.635Z,91.26
2022-10-09T03:44:38.026Z,91.60
2022-10-09T03:47:04.559Z,91.99
2022-10-09T03:49:31.037Z,91.65
2022-10-09T03:51:57.483Z,91.29
2022-10-09T03:54:23.906Z,91.33
2022-10-09T03:56:50.330Z,89.35
2022-10-09T03:59:16.810Z,89.12
2022-10-09T04:01:43.249Z,89.85
2022-10-09T04:04:09.660Z,90.18
2022-10-09T04:06:36.136Z,90.93
2022-10-09T04:09:02.597Z,90.33
2022-10-09T04:11:29.003Z,90.42
2022-10-09T04:13:55.496Z,91.16
2022-10-09T04:16:21.981Z,91.26
2022-10-09T04:18:48.531Z,91.54
2022-10-09T04:21:15.077Z,91.72
2022-10-09T04:23:41.622Z,91.51
2022-10-09T04:26:08.147Z,91.78
2022-10-09T04:28:34.717Z,91.84
2022-10-09T04:31:01.434Z,92.02
2022-10-09T04:33:28.149Z,92.29
2022-10-09T04:35:55.696Z,92.36
2022-10-09T04:38:23.409Z,92.34
2022-10-09T04:41:01.818Z,93.49
2022-10-09T04:43:28.397Z,92.87
2022-10-09T04:45:55.352Z,93.20
2022-10-09T04:48:22.227Z,92.01
2022-10-09T04:50:49.015Z,91.69
2022-10-09T04:53:15.752Z,92.66
2022-10-09T04:55:44.076Z,92.82
2022-10-09T04:58:12.137Z,92.38
2022-10-09T05:00:43.953Z,91.78
2022-10-09T05:03:10.660Z,91.77
2022-10-09T05:05:37.617Z,92.03
2022-10-09T05:08:04.302Z,92.77
2022-10-09T05:10:32.278Z,91.68
2022-10-09T05:12:59.216Z,91.52
2022-10-09T05:15:25.894Z,91.50
2022-10-09T05:17:52.340Z,91.58
2022-10-09T05:20:18.848Z,92.02
2022-10-09T05:22:46.375Z,91.93
2022-10-09T05:25:13.776Z,91.76
2022-10-09T05:27:40.215Z,91.76
2022-10-09T05:30:07.799Z,91.49
2022-10-09T05:32:34.503Z,91.24
2022-10-09T05:35:00.955Z,90.80
2022-10-09T05:37:27.511Z,90.66
2022-10-09T05:39:53.968Z,91.27
2022-10-09T05:42:20.404Z,91.69
2022-10-09T05:44:46.846Z,91.20
2022-10-09T05:47:17.768Z,90.76
2022-10-09T05:49:44.209Z,91.44
2022-10-09T05:52:10.619Z,91.39
2022-10-09T05:54:37.092Z,90.74
2022-10-09T05:57:04.903Z,90.72
2022-10-09T05:59:31.321Z,90.77
2022-10-09T06:01:58.021Z,90.25
2022-10-09T06:04:25.035Z,91.21
2022-10-09T06:06:51.964Z,91.40
2022-10-09T06:09:24.051Z,91.05
2022-10-09T06:11:51.135Z,90.45
2022-10-09T06:14:18.206Z,90.62
2022-10-09T06:16:45.512Z,90.86
2022-10-09T06:19:14.411Z,89.99
2022-10-09T06:21:41.212Z,90.12
2022-10-09T06:24:07.963Z,90.52
2022-10-09T06:26:35.006Z,91.19
2022-10-09T06:29:02.518Z,91.50
2022-10-09T06:31:32.169Z,90.69
2022-10-09T06:34:00.241Z,90.66
2022-10-09T06:36:29.207Z,90.85
2022-10-09T06:38:56.039Z,91.38
2022-10-09T06:41:25.180Z,91.96
2022-10-09T06:43:54.338Z,95.54
2022-10-09T06:46:22.846Z,96.44
2022-10-09T06:48:49.347Z,96.36
2022-10-09T06:51:19.099Z,96.62
2022-10-09T06:53:50.647Z,96.64
2022-10-09T06:56:19.796Z,96.38
2022-10-09T06:58:46.820Z,96.07
2022-10-09T07:01:23.904Z,96.75
2022-10-09T07:04:02.914Z,97.75
2022-10-09T07:06:31.734Z,97.64
2022-10-09T07:09:07.212Z,98.08
2022-10-09T07:11:39.235Z,97.28
2022-10-09T07:14:08.082Z,96.43
2022-10-09T07:16:38.117Z,96.85
2022-10-09T07:19:11.065Z,97.97
2022-10-09T07:21:40.839Z,98.72
2022-10-09T07:24:08.122Z,98.57
2022-10-09T07:26:37.447Z,99.08
2022-10-09T07:29:05.996Z,98.15
2022-10-09T07:31:32.459Z,99.24
2022-10-09T07:33:59.558Z,99.27
2022-10-09T07:36:26.872Z,99.48
2022-10-09T07:38:55.357Z,99.24
2022-10-09T07:41:23.114Z,98.55
2022-10-09T07:43:49.852Z,98.12
2022-10-09T07:46:18.844Z,98.62
2022-10-09T07:48:45.983Z,99.21
2022-10-09T07:51:15.286Z,99.17
2022-10-09T07:53:41.975Z,100.00
2022-10-09T07:56:13.976Z,100.00
2022-10-09T07:58:40.430Z,99.99
2022-10-09T08:01:07.895Z,100.00
2022-10-09T08:03:35.344Z,99.57
2022-10-09T08:06:01.881Z,98.74
2022-10-09T08:08:28.586Z,98.46
2022-10-09T08:10:55.019Z,96.21
2022-10-09T08:13:21.532Z,97.56
2022-10-09T08:15:48.042Z,97.30
2022-10-09T08:18:15.285Z,97.44
2022-10-09T08:20:41.875Z,97.46
2022-10-09T08:23:08.288Z,97.00
2022-10-09T08:25:36.571Z,97.09
2022-10-09T08:28:04.106Z,97.78
2022-10-09T08:30:30.815Z,98.40
2022-10-09T08:32:57.283Z,97.73
2022-10-09T08:35:23.711Z,97.49
2022-10-09T08:37:50.274Z,97.45
2022-10-09T08:40:29.458Z,97.61
2022-10-09T08:43:07.020Z,98.10
2022-10-09T08:45:35.095Z,96.69
2022-10-09T08:48:06.485Z,98.60
2022-10-09T08:50:38.012Z,98.26
2022-10-09T08:53:24.338Z,98.99
2022-10-09T08:56:03.313Z,99.48
2022-10-09T08:58:35.847Z,100.00
2022-10-09T09:01:21.721Z,99.97
2022-10-09T09:04:06.558Z,100.00
2022-10-09T09:06:42.711Z,99.62
2022-10-09T09:09:20.914Z,97.38
2022-10-09T09:12:12.299Z,99.08
2022-10-09T09:14:56.801Z,97.40
2022-10-09T09:17:41.464Z,97.58
2022-10-09T09:20:20.999Z,97.16
2022-10-09T09:22:49.413Z,95.91
2022-10-09T09:25:19.776Z,96.53
2022-10-09T09:27:46.559Z,97.70
2022-10-09T09:30:13.081Z,97.85
2022-10-09T09:32:43.635Z,99.01
2022-10-09T09:35:25.262Z,100.00
2022-10-09T09:37:53.012Z,99.64
2022-10-09T09:40:37.602Z,99.57
2022-10-09T09:43:16.057Z,100.00
2022-10-09T09:45:43.812Z,99.66
2022-10-09T09:48:18.698Z,99.96
2022-10-09T09:50:52.907Z,98.92
2022-10-09T09:53:39.681Z,98.02
2022-10-09T09:56:07.045Z,96.68
2022-10-09T09:58:39.195Z,96.23
2022-10-09T10:01:07.286Z,94.65
2022-10-09T10:03:35.715Z,94.46
2022-10-09T10:06:02.439Z,92.26
2022-10-09T10:08:33.724Z,91.26
2022-10-09T10:11:07.696Z,91.17
2022-10-09T10:13:45.548Z,90.90
2022-10-09T10:16:21.597Z,89.85
2022-10-09T10:18:48.408Z,90.08
2022-10-09T10:21:17.598Z,89.56
2022-10-09T10:24:04.302Z,88.66
2022-10-09T10:26:42.920Z,88.90
2022-10-09T10:29:19.572Z,87.60
2022-10-09T10:32:11.102Z,87.07
2022-10-09T10:34:45.847Z,85.67
2022-10-09T10:37:14.964Z,84.54
2022-10-09T10:39:50.999Z,85.59
2022-10-09T10:42:53.167Z,86.37
2022-10-09T10:45:33.546Z,85.59
2022-10-09T10:48:02.766Z,84.12
2022-10-09T10:50:41.347Z,84.61
2022-10-09T10:53:32.250Z,83.93
2022-10-09T10:56:05.365Z,83.44
2022-10-09T10:58:46.946Z,80.23
2022-10-09T11:01:35.356Z,80.45
2022-10-09T11:04:21.392Z,79.33
2022-10-09T11:07:18.207Z,79.04
2022-10-09T11:10:15.860Z,80.76
2022-10-09T11:12:53.623Z,80.28
2022-10-09T11:15:44.750Z,81.11
2022-10-09T11:18:29.108Z,79.82
2022-10-09T11:21:40.782Z,80.38
2022-10-09T11:24:26.966Z,79.84
2022-10-09T11:27:03.146Z,80.24
2022-10-09T11:29:39.804Z,80.16
2022-10-09T11:32:22.251Z,79.57
2022-10-09T11:34:57.589Z,80.34
2022-10-09T11:37:29.612Z,81.01
2022-10-09T11:39:56.892Z,80.60
2022-10-09T11:42:25.947Z,81.66
2022-10-09T11:45:18.852Z,80.99
2022-10-09T11:48:10.132Z,79.78
2022-10-09T11:50:48.926Z,77.03
2022-10-09T11:53:18.716Z,76.96
2022-10-09T11:55:45.855Z,77.27
2022-10-09T11:58:24.764Z,77.01
2022-10-09T12:00:57.721Z,76.66
2022-10-09T12:03:27.446Z,76.00
2022-10-09T12:06:04.999Z,75.32
2022-10-09T12:08:31.771Z,74.80
2022-10-09T12:11:07.311Z,74.32
2022-10-09T12:13:36.730Z,74.76
2022-10-09T12:16:03.805Z,75.24
2022-10-09T12:18:34.537Z,74.81
2022-10-09T12:21:05.307Z,75.40
2022-10-09T12:23:36.058Z,75.05
2022-10-09T12:26:03.764Z,76.25
2022-10-09T12:28:45.859Z,75.48
2022-10-09T12:31:30.213Z,75.23
2022-10-09T12:34:04.773Z,75.66
2022-10-09T12:36:31.897Z,74.75
2022-10-09T12:39:12.645Z,75.02
2022-10-09T12:41:39.893Z,73.73
2022-10-09T12:44:15.697Z,73.77
2022-10-09T12:46:42.265Z,72.48
2022-10-09T12:49:19.303Z,71.70
2022-10-09T12:51:53.843Z,73.16
2022-10-09T12:54:25.153Z,72.63
2022-10-09T12:56:56.391Z,73.62
2022-10-09T12:59:26.165Z,75.00
2022-10-09T13:01:57.880Z,74.80
2022-10-09T13:04:34.094Z,74.31
2022-10-09T13:07:05.720Z,73.90
2022-10-09T13:09:37.832Z,73.87
2022-10-09T13:12:09.259Z,73.47
2022-10-09T13:14:45.929Z,73.98
2022-10-09T13:17:33.497Z,73.51
2022-10-09T13:20:21.419Z,74.24
2022-10-09T13:22:55.435Z,72.35
2022-10-09T13:25:23.392Z,71.88
2022-10-09T13:27:50.110Z,71.66
2022-10-09T13:30:16.956Z,70.93
2022-10-09T13:32:43.452Z,69.11
2022-10-09T13:35:09.890Z,69.91
2022-10-09T13:37:36.701Z,70.00
2022-10-09T13:40:05.842Z,69.53
2022-10-09T13:42:37.096Z,70.41
2022-10-09T13:45:05.665Z,71.15
2022-10-09T13:47:32.168Z,69.55
2022-10-09T13:49:59.107Z,69.79
2022-10-09T13:52:25.627Z,70.41
2022-10-09T13:54:52.146Z,71.01
2022-10-09T13:57:18.790Z,71.03
2022-10-09T13:59:45.534Z,70.75
2022-10-09T14:02:12.324Z,71.16
2022-10-09T14:04:39.014Z,71.24
2022-10-09T14:07:05.544Z,70.24
2022-10-09T14:09:31.997Z,70.33
2022-10-09T14:11:58.887Z,70.02
2022-10-09T14:14:25.327Z,68.72
2022-10-09T14:16:51.816Z,69.79
2022-10-09T14:19:18.402Z,68.34
2022-10-09T14:21:46.801Z,69.05
2022-10-09T14:24:14.467Z,68.76
2022-10-09T14:26:41.275Z,68.06
2022-10-09T14:29:07.825Z,68.39
2022-10-09T14:31:34.265Z,69.23
2022-10-09T14:34:00.843Z,68.16
2022-10-09T14:36:27.576Z,68.54
2022-10-09T14:38:54.225Z,69.45
2022-10-09T14:41:21.617Z,69.66
2022-10-09T14:43:56.070Z,68.44
2022-10-09T14:46:24.308Z,69.12
2022-10-09T14:48:53.131Z,69.89
2022-10-09T14:51:21.290Z,68.56
2022-10-09T14:53:47.926Z,69.54
2022-10-09T14:56:20.085Z,70.20
2022-10-09T14:58:47.128Z,70.83
2022-10-09T15:01:15.563Z,70.93
2022-10-09T15:03:42.667Z,71.09
2022-10-09T15:06:11.777Z,72.03
2022-10-09T15:08:41.505Z,71.09
2022-10-09T15:11:09.479Z,71.63
2022-10-09T15:13:36.768Z,71.71
2022-10-09T15:16:09.585Z,72.73
2022-10-09T15:18:36.163Z,72.07
2022-10-09T15:21:02.862Z,70.87
2022-10-09T15:23:29.735Z,71.92
2022-10-09T15:25:58.287Z,71.86
2022-10-09T15:28:25.510Z,73.10
2022-10-09T15:30:54.705Z,72.96
2022-10-09T15:33:25.658Z,72.73
2022-10-09T15:35:53.844Z,73.87
2022-10-09T15:38:22.579Z,73.68
2022-10-09T15:40:51.432Z,74.31
2022-10-09T15:43:19.831Z,73.97
2022-10-09T15:45:47.150Z,73.70
2022-10-09T15:48:21.861Z,73.88
2022-10-09T15:50:50.651Z,74.70
2022-10-09T15:53:18.958Z,74.01
2022-10-09T15:55:48.039Z,72.38
2022-10-09T15:58:15.807Z,73.18
2022-10-09T16:00:47.304Z,73.51
2022-10-09T16:03:15.053Z,73.07
2022-10-09T16:05:44.321Z,73.15
2022-10-09T16:08:11.798Z,73.92
2022-10-09T16:10:47.860Z,74.40
2022-10-09T16:13:15.498Z,73.92
2022-10-09T16:15:42.611Z,74.14
2022-10-09T16:18:09.935Z,74.66
2022-10-09T16:20:37.977Z,74.61
2022-10-09T16:23:05.333Z,74.20
2022-10-09T16:25:32.253Z,72.85
2022-10-09T16:27:58.734Z,72.49
2022-10-09T16:30:25.688Z,71.58
2022-10-09T16:32:52.856Z,70.53
2022-10-09T16:35:19.896Z,70.04
2022-10-09T16:37:46.316Z,70.26
2022-10-09T16:40:13.058Z,70.13
2022-10-09T16:42:39.807Z,70.76
2022-10-09T16:45:06.872Z,70.03
2022-10-09T16:47:34.016Z,70.86
2022-10-09T16:50:00.486Z,69.98
2022-10-09T16:52:27.048Z,69.88
2022-10-09T16:54:57.073Z,70.62
2022-10-09T16:57:26.060Z,71.07
2022-10-09T16:59:52.542Z,70.90
2022-10-09T17:02:18.964Z,72.19
2022-10-09T17:04:46.248Z,71.65
2022-10-09T17:07:12.887Z,70.44
2022-10-09T17:09:40.491Z,72.23
2022-10-09T17:12:14.940Z,72.79
2022-10-09T17:14:41.427Z,72.82
2022-10-09T17:17:10.035Z,71.70
2022-10-09T17:19:37.900Z,72.33
2022-10-09T17:22:05.238Z,73.20
2022-10-09T17:24:32.148Z,73.42
2022-10-09T17:26:58.767Z,73.79
2022-10-09T17:29:25.245Z,74.00
2022-10-09T17:31:52.078Z,73.84
2022-10-09T17:34:18.723Z,75.04
2022-10-09T17:36:45.791Z,74.67
2022-10-09T17:39:15.383Z,74.96
2022-10-09T17:41:44.237Z,76.43
2022-10-09T17:44:10.716Z,75.92
2022-10-09T17:46:37.185Z,76.06
2022-10-09T17:49:04.513Z,75.60
2022-10-09T17:51:37.083Z,75.66
2022-10-09T17:54:12.298Z,76.80
2022-10-09T17:56:39.717Z,76.28
2022-10-09T17:59:06.370Z,77.36
2022-10-09T18:01:32.958Z,78.27
2022-10-09T18:03:59.836Z,78.32
2022-10-09T18:06:26.631Z,78.52
2022-10-09T18:08:55.386Z,78.46
2022-10-09T18:11:24.197Z,79.87
2022-10-09T18:13:50.992Z,79.93
2022-10-09T18:16:22.828Z,80.31
2022-10-09T18:18:49.153Z,80.47
2022-10-09T18:21:17.062Z,81.06
2022-10-09T18:23:45.028Z,80.60
2022-10-09T18:26:14.543Z,80.13
2022-10-09T18:28:42.671Z,79.58
2022-10-09T18:31:14.293Z,79.81
2022-10-09T18:33:40.797Z,80.57
2022-10-09T18:36:11.825Z,80.99
2022-10-09T18:38:38.327Z,81.84
2022-10-09T18:41:08.263Z,81.49
2022-10-09T18:43:35.200Z,82.73
2022-10-09T18:46:01.725Z,82.91
2022-10-09T18:48:35.166Z,82.81
2022-10-09T18:51:03.515Z,81.52
2022-10-09T18:53:32.450Z,82.78
2022-10-09T18:55:59.139Z,83.38
2022-10-09T18:58:25.803Z,83.50
2022-10-09T19:00:52.266Z,83.89
2022-10-09T19:03:18.731Z,84.53
2022-10-09T19:05:45.195Z,83.92
2022-10-09T19:08:12.336Z,84.43
2022-10-09T19:10:39.260Z,84.70
2022-10-09T19:13:05.887Z,85.27
2022-10-09T19:15:32.499Z,85.37
2022-10-09T19:17:59.440Z,85.23
2022-10-09T19:20:29.383Z,85.52
2022-10-09T19:22:56.368Z,86.88
2022-10-09T19:25:23.401Z,86.84
2022-10-09T19:27:50.633Z,87.10
2022-10-09T19:30:18.529Z,87.79
2022-10-09T19:32:46.328Z,87.80
2022-10-09T19:35:13.380Z,87.99
2022-10-09T19:37:40.284Z,88.45
2022-10-09T19:40:07.957Z,88.07
2022-10-09T19:42:35.039Z,88.79
2022-10-09T19:45:01.550Z,88.76
2022-10-09T19:47:28.391Z,89.47
2022-10-09T19:49:54.978Z,89.83
2022-10-09T19:52:23.013Z,89.59
2022-10-09T19:54:49.986Z,89.97
2022-10-09T19:57:17.006Z,90.77
2022-10-09T19:59:44.130Z,90.27
2022-10-09T20:02:11.176Z,91.67
2022-10-09T20:04:38.146Z,91.16
2022-10-09T20:07:07.927Z,90.12
2022-10-09T20:09:38.906Z,91.46
2022-10-09T20:12:07.250Z,91.15
2022-10-09T20:14:34.273Z,91.07
2022-10-09T20:17:02.332Z,91.13
2022-10-09T20:19:31.340Z,91.29
2022-10-09T20:21:58.575Z,92.00
2022-10-09T20:24:25.052Z,91.89
2022-10-09T20:26:51.540Z,91.65
2022-10-09T20:29:17.950Z,91.46
2022-10-09T20:31:44.480Z,91.28
2022-10-09T20:34:10.988Z,91.41
2022-10-09T20:36:39.013Z,91.21
2022-10-09T20:39:11.601Z,91.48
2022-10-09T20:41:41.112Z,90.65
2022-10-09T20:44:07.749Z,90.94
2022-10-09T20:46:36.916Z,92.15
2022-10-09T20:49:06.372Z,91.66
2022-10-09T20:51:35.196Z,91.44
2022-10-09T20:54:02.332Z,90.88
2022-10-09T20:56:31.540Z,90.73
2022-10-09T20:58:59.065Z,92.10
2022-10-09T21:01:25.961Z,94.30
2022-10-09T21:03:52.476Z,96.03
2022-10-09T21:06:20.802Z,94.74
2022-10-09T21:08:47.766Z,94.98
2022-10-09T21:11:17.071Z,95.85
2022-10-09T21:13:44.617Z,96.44
2022-10-09T21:16:13.596Z,98.03
2022-10-09T21:18:40.485Z,97.43
2022-10-09T21:21:09.689Z,97.87
2022-10-09T21:23:36.328Z,97.92
2022-10-09T21:26:03.583Z,97.11
2022-10-09T21:28:30.239Z,97.58
2022-10-09T21:30:56.776Z,98.04
2022-10-09T21:33:23.267Z,98.23
2022-10-09T21:35:51.621Z,97.63
2022-10-09T21:38:20.790Z,98.16
2022-10-09T21:40:49.237Z,97.44
2022-10-09T21:43:16.199Z,98.01
2022-10-09T21:45:42.782Z,98.87
2022-10-09T21:48:15.523Z,97.38
2022-10-09T21:50:42.380Z,98.12
2022-10-09T21:53:08.888Z,97.67
2022-10-09T21:55:37.646Z,96.87
2022-10-09T21:58:04.908Z,96.95
2022-10-09T22:00:31.442Z,98.15
2022-10-09T22:02:58.015Z,97.19
2022-10-09T22:05:24.493Z,98.12
2022-10-09T22:07:50.950Z,97.61
2022-10-09T22:10:17.515Z,98.57
2022-10-09T22:12:43.925Z,99.73
2022-10-09T22:15:10.842Z,100.00
2022-10-09T22:17:37.315Z,99.37
2022-10-09T22:20:04.246Z,99.37
2022-10-09T22:22:31.676Z,100.00
2022-10-09T22:24:59.742Z,100.00
2022-10-09T22:27:26.490Z,100.00
2022-10-09T22:29:53.035Z,99.82
2022-10-09T22:32:19.486Z,100.00
2022-10-09T22:34:45.981Z,99.86
2022-10-09T22:37:12.438Z,100.00
2022-10-09T22:39:38.937Z,100.00
2022-10-09T22:42:05.426Z,100.00
2022-10-09T22:44:32.135Z,100.00
2022-10-09T22:46:58.586Z,100.00
2022-10-09T22:49:24.995Z,100.00
2022-10-09T22:51:51.464Z,100.00
2022-10-09T22:54:19.010Z,100.00
2022-10-09T22:56:46.214Z,100.00
2022-10-09T22:59:15.590Z,100.00
2022-10-09T23:01:53.498Z,100.00
2022-10-09T23:04:21.643Z,100.00
2022-10-09T23:06:59.021Z,100.00
2022-10-09T23:09:29.007Z,100.00
2022-10-09T23:11:56.660Z,100.00
2022-10-09T23:14:23.740Z,100.00
2022-10-09T23:16:50.298Z,100.00
2022-10-09T23:19:17.847Z,100.00
2022-10-09T23:21:47.276Z,100.00
2022-10-09T23:24:18.254Z,100.00
2022-10-09T23:26:46.035Z,100.00
2022-10-09T23:29:18.023Z,100.00
2022-10-09T23:31:44.833Z,100.00
2022-10-09T23:34:11.800Z,100.00
2022-10-09T23:36:38.503Z,100.00
2022-10-09T23:39:06.223Z,100.00
2022-10-09T23:41:33.110Z,100.00
2022-10-09T23:43:59.536Z,100.00
2022-10-09T23:46:29.251Z,100.00
2022-10-09T23:48:55.771Z,100.00
2022-10-09T23:51:24.451Z,100.00
2022-10-09T23:53:51.092Z,100.00
2022-10-09T23:56:23.122Z,100.00
2022-10-09T23:58:49.949Z,100.00
